Terminal Aerodrome Forecast
Issued by NWS

Home | Current Version | Previous Version | Text Only | Print | Product List | Glossary On
Versions: 1 2 3 4 5 6 7 8 9 10 11 12 13 14 15 16 17 18 19 20 21
000
FTUS46 KSEW 232100 AAA
TAFHQM
TAF AMD
KHQM 232105Z 2321/2418 22015KT P6SM VCTS SCT035CB BKN060
      TEMPO 2321/2401 22013G22KT 5SM TSRA BKN028CB OVC040
     FM240200 17006KT P6SM SCT035 BKN060
      TEMPO 2402/2406 -SHRA
     FM240600 11006KT P6SM SCT035 BKN060 BKN110
     FM241200 07008KT P6SM VCFG SCT110 BKN200=

USA.gov is the U.S. government's official web portal to all federal, state and local government web resources and services.